createdAt,value
2023-04-16T00:01:08.566Z,98565.00
2023-04-16T00:03:35.313Z,98565.31
2023-04-16T00:06:02.107Z,98565.59
2023-04-16T00:08:28.486Z,98566.38
2023-04-16T00:10:54.934Z,98568.63
2023-04-16T00:13:22.541Z,98571.47
2023-04-16T00:15:49.010Z,98573.72
2023-04-16T00:18:15.393Z,98574.25
2023-04-16T00:20:41.843Z,98580.41
2023-04-16T00:23:08.200Z,98577.44
2023-04-16T00:25:34.694Z,98565.84
2023-04-16T00:28:01.139Z,98567.06
2023-04-16T00:30:27.658Z,98570.38
2023-04-16T00:32:54.189Z,98575.47
2023-04-16T00:35:20.654Z,98575.16
2023-04-16T00:37:47.234Z,98581.50
2023-04-16T00:40:13.725Z,98578.56
2023-04-16T00:42:40.321Z,98580.31
2023-04-16T00:45:07.398Z,98588.75
2023-04-16T00:47:33.960Z,98586.22
2023-04-16T00:50:00.491Z,98579.56
2023-04-16T00:52:27.554Z,98579.56
2023-04-16T00:54:54.038Z,98582.59
2023-04-16T00:57:23.932Z,98571.00
2023-04-16T00:59:51.328Z,98571.41
2023-04-16T01:02:18.003Z,98568.31
2023-04-16T01:04:44.571Z,98569.53
2023-04-16T01:07:11.233Z,98574.31
2023-04-16T01:09:37.664Z,98571.16
2023-04-16T01:12:04.228Z,98571.06
2023-04-16T01:14:36.059Z,98573.03
2023-04-16T01:17:03.864Z,98579.16
2023-04-16T01:19:36.316Z,98583.88
2023-04-16T01:22:03.806Z,98587.13
2023-04-16T01:24:30.699Z,98580.09
2023-04-16T01:27:00.589Z,98582.44
2023-04-16T01:29:27.268Z,98586.47
2023-04-16T01:31:54.296Z,98581.50
2023-04-16T01:34:21.084Z,98578.97
2023-04-16T01:36:47.518Z,98577.25
2023-04-16T01:39:16.271Z,98592.56
2023-04-16T01:41:43.252Z,98589.09
2023-04-16T01:44:09.712Z,98581.91
2023-04-16T01:46:37.717Z,98578.78
2023-04-16T01:49:05.172Z,98582.66
2023-04-16T01:51:32.288Z,98584.94
2023-04-16T01:53:58.926Z,98582.72
2023-04-16T01:56:25.990Z,98592.38
2023-04-16T01:58:53.184Z,98593.16
2023-04-16T02:01:20.100Z,98594.03
2023-04-16T02:03:47.521Z,98594.03
2023-04-16T02:06:14.744Z,98589.31
2023-04-16T02:08:41.806Z,98593.06
2023-04-16T02:11:08.214Z,98593.91
2023-04-16T02:13:34.857Z,98595.72
2023-04-16T02:16:02.413Z,98590.25
2023-04-16T02:18:28.900Z,98591.38
2023-04-16T02:20:58.441Z,98584.69
2023-04-16T02:23:24.905Z,98590.16
2023-04-16T02:25:51.622Z,98590.94
2023-04-16T02:28:18.049Z,98595.38
2023-04-16T02:30:44.548Z,98586.03
2023-04-16T02:33:12.180Z,98588.19
2023-04-16T02:35:39.630Z,98598.25
2023-04-16T02:38:06.510Z,98602.78
2023-04-16T02:40:33.169Z,98603.34
2023-04-16T02:42:59.748Z,98601.31
2023-04-16T02:45:26.147Z,98610.28
2023-04-16T02:47:52.597Z,98601.09
2023-04-16T02:50:19.176Z,98602.22
2023-04-16T02:52:46.016Z,98598.56
2023-04-16T02:55:12.480Z,98598.81
2023-04-16T02:57:39.003Z,98599.81
2023-04-16T03:00:06.115Z,98598.97
2023-04-16T03:02:32.671Z,98599.13
2023-04-16T03:04:59.396Z,98599.13
2023-04-16T03:07:26.180Z,98603.28
2023-04-16T03:09:52.746Z,98605.81
2023-04-16T03:12:19.187Z,98602.72
2023-04-16T03:14:45.648Z,98605.09
2023-04-16T03:17:12.218Z,98605.28
2023-04-16T03:19:38.612Z,98607.00
2023-04-16T03:22:05.382Z,98607.50
2023-04-16T03:24:32.184Z,98604.72
2023-04-16T03:26:58.943Z,98611.91
2023-04-16T03:29:26.704Z,98610.47
2023-04-16T03:31:53.368Z,98609.63
2023-04-16T03:34:19.881Z,98615.25
2023-04-16T03:36:46.452Z,98611.59
2023-04-16T03:39:15.309Z,98618.81
2023-04-16T03:41:41.875Z,98601.69
2023-04-16T03:44:08.761Z,98610.22
2023-04-16T03:46:35.478Z,98606.31
2023-04-16T03:49:01.895Z,98596.13
2023-04-16T03:51:28.449Z,98606.91
2023-04-16T03:53:55.125Z,98599.94
2023-04-16T03:56:21.564Z,98590.16
2023-04-16T03:58:48.109Z,98593.22
2023-04-16T04:01:14.490Z,98592.06
2023-04-16T04:03:41.140Z,98593.59
2023-04-16T04:06:08.676Z,98587.84
2023-04-16T04:08:35.543Z,98595.81
2023-04-16T04:11:02.037Z,98589.22
2023-04-16T04:13:28.560Z,98598.41
2023-04-16T04:15:55.481Z,98603.94
2023-04-16T04:18:22.035Z,98602.72
2023-04-16T04:20:48.616Z,98604.72
2023-04-16T04:23:15.591Z,98600.22
2023-04-16T04:25:42.085Z,98605.13
2023-04-16T04:28:08.562Z,98600.38
2023-04-16T04:30:35.982Z,98590.31
2023-04-16T04:33:02.710Z,98604.91
2023-04-16T04:35:29.217Z,98601.69
2023-04-16T04:37:55.726Z,98598.91
2023-04-16T04:40:22.361Z,98602.25
2023-04-16T04:42:49.048Z,98614.44
2023-04-16T04:45:16.091Z,98616.69
2023-04-16T04:47:42.754Z,98615.16
2023-04-16T04:50:09.806Z,98621.16
2023-04-16T04:52:36.386Z,98621.41
2023-04-16T04:55:02.942Z,98620.59
2023-04-16T04:57:29.303Z,98625.16
2023-04-16T04:59:55.931Z,98625.06
2023-04-16T05:02:22.524Z,98636.72
2023-04-16T05:04:49.068Z,98627.81
2023-04-16T05:07:16.279Z,98637.47
2023-04-16T05:09:42.865Z,98637.91
2023-04-16T05:12:09.444Z,98647.03
2023-04-16T05:14:36.326Z,98645.22
2023-04-16T05:17:02.962Z,98657.75
2023-04-16T05:19:29.706Z,98653.00
2023-04-16T05:21:56.252Z,98647.09
2023-04-16T05:24:23.256Z,98650.72
2023-04-16T05:26:49.862Z,98654.69
2023-04-16T05:29:16.287Z,98653.03
2023-04-16T05:31:43.067Z,98659.78
2023-04-16T05:34:09.606Z,98662.88
2023-04-16T05:36:36.045Z,98670.59
2023-04-16T05:39:02.870Z,98672.72
2023-04-16T05:41:29.396Z,98679.66
2023-04-16T05:43:56.172Z,98677.75
2023-04-16T05:46:22.767Z,98683.00
2023-04-16T05:48:49.322Z,98681.19
2023-04-16T05:51:15.874Z,98690.13
2023-04-16T05:53:42.362Z,98688.38
2023-04-16T05:56:09.079Z,98696.53
2023-04-16T05:58:35.533Z,98699.81
2023-04-16T06:01:02.206Z,98704.28
2023-04-16T06:03:28.827Z,98698.59
2023-04-16T06:05:55.588Z,98697.53
2023-04-16T06:08:22.188Z,98696.53
2023-04-16T06:10:49.184Z,98698.47
2023-04-16T06:13:15.657Z,98687.78
2023-04-16T06:15:42.338Z,98698.47
2023-04-16T06:18:09.206Z,98711.66
2023-04-16T06:20:36.256Z,98704.81
2023-04-16T06:23:02.749Z,98707.31
2023-04-16T06:25:29.321Z,98707.78
2023-04-16T06:27:56.027Z,98710.28
2023-04-16T06:30:22.493Z,98711.50
2023-04-16T06:32:49.322Z,98711.88
2023-04-16T06:35:16.062Z,98705.97
2023-04-16T06:37:42.577Z,98709.22
2023-04-16T06:40:09.475Z,98712.94
2023-04-16T06:42:36.085Z,98722.38
2023-04-16T06:45:02.701Z,98721.09
2023-04-16T06:47:29.194Z,98730.84
2023-04-16T06:49:55.671Z,98724.91
2023-04-16T06:52:22.250Z,98729.28
2023-04-16T06:54:48.778Z,98736.50
2023-04-16T06:57:16.169Z,98736.03
2023-04-16T06:59:42.829Z,98739.13
2023-04-16T07:02:10.481Z,98743.84
2023-04-16T07:04:37.310Z,98747.31
2023-04-16T07:07:03.847Z,98745.97
2023-04-16T07:09:30.623Z,98751.16
2023-04-16T07:11:57.134Z,98745.38
2023-04-16T07:14:23.614Z,98742.59
2023-04-16T07:16:50.210Z,98755.09
2023-04-16T07:19:16.795Z,98746.31
2023-04-16T07:21:43.728Z,98751.72
2023-04-16T07:24:11.610Z,98755.94
2023-04-16T07:26:38.110Z,98756.94
2023-04-16T07:29:04.584Z,98752.19
2023-04-16T07:31:31.374Z,98754.84
2023-04-16T07:33:58.383Z,98759.50
2023-04-16T07:36:25.229Z,98765.44
2023-04-16T07:38:51.656Z,98766.63
2023-04-16T07:41:18.134Z,98764.69
2023-04-16T07:43:44.542Z,98769.03
2023-04-16T07:46:11.256Z,98768.75
2023-04-16T07:48:37.659Z,98771.41
2023-04-16T07:51:04.116Z,98765.53
2023-04-16T07:53:30.732Z,98770.84
2023-04-16T07:55:57.187Z,98773.38
2023-04-16T07:58:23.731Z,98774.53
2023-04-16T08:00:51.056Z,98771.97
2023-04-16T08:03:18.282Z,98775.47
2023-04-16T08:05:45.185Z,98774.97
2023-04-16T08:08:11.709Z,98774.78
2023-04-16T08:10:39.265Z,98771.41
2023-04-16T08:13:05.926Z,98779.25
2023-04-16T08:15:32.471Z,98785.56
2023-04-16T08:17:59.655Z,98783.47
2023-04-16T08:20:26.259Z,98782.25
2023-04-16T08:22:54.194Z,98793.78
2023-04-16T08:25:20.821Z,98794.13
2023-04-16T08:27:50.133Z,98796.38
2023-04-16T08:30:16.714Z,98796.66
2023-04-16T08:32:43.797Z,98800.91
2023-04-16T08:35:10.348Z,98804.97
2023-04-16T08:37:36.779Z,98794.03
2023-04-16T08:40:03.653Z,98797.94
2023-04-16T08:42:34.027Z,98799.75
2023-04-16T08:45:13.233Z,98801.72
2023-04-16T08:47:41.328Z,98806.94
2023-04-16T08:50:11.204Z,98801.03
2023-04-16T08:52:43.285Z,98810.16
2023-04-16T08:55:17.122Z,98808.44
2023-04-16T08:57:58.141Z,98807.03
2023-04-16T09:00:25.352Z,98806.22
2023-04-16T09:02:53.061Z,98807.38
2023-04-16T09:05:22.654Z,98813.25
2023-04-16T09:07:49.253Z,98805.53
2023-04-16T09:10:16.451Z,98813.81
2023-04-16T09:12:43.527Z,98817.31
2023-04-16T09:15:11.545Z,98815.09
2023-04-16T09:17:38.827Z,98821.94
2023-04-16T09:20:08.718Z,98820.25
2023-04-16T09:22:36.223Z,98830.34
2023-04-16T09:25:02.876Z,98830.75
2023-04-16T09:27:30.335Z,98824.47
2023-04-16T09:29:56.853Z,98827.53
2023-04-16T09:32:27.651Z,98827.66
2023-04-16T09:35:01.851Z,98828.47
2023-04-16T09:37:30.442Z,98830.47
2023-04-16T09:40:04.647Z,98832.00
2023-04-16T09:42:33.478Z,98833.38
2023-04-16T09:45:02.638Z,98836.75
2023-04-16T09:47:44.782Z,98828.31
2023-04-16T09:50:19.257Z,98832.28
2023-04-16T09:52:49.525Z,98835.94
2023-04-16T09:55:15.967Z,98838.44
2023-04-16T09:57:42.486Z,98835.63
2023-04-16T10:00:10.254Z,98841.09
2023-04-16T10:02:41.587Z,98846.75
2023-04-16T10:05:08.824Z,98853.44
2023-04-16T10:07:36.798Z,98858.50
2023-04-16T10:10:04.239Z,98850.22
2023-04-16T10:12:32.652Z,98855.16
2023-04-16T10:14:59.181Z,98853.91
2023-04-16T10:17:26.440Z,98861.03
2023-04-16T10:19:54.697Z,98860.19
2023-04-16T10:22:21.338Z,98869.56
2023-04-16T10:24:48.788Z,98868.34
2023-04-16T10:27:16.596Z,98867.75
2023-04-16T10:29:44.286Z,98873.78
2023-04-16T10:32:11.323Z,98869.44
2023-04-16T10:34:37.942Z,98870.69
2023-04-16T10:37:04.450Z,98879.53
2023-04-16T10:39:31.006Z,98874.88
2023-04-16T10:42:11.769Z,98874.88
2023-04-16T10:44:39.997Z,98881.06
2023-04-16T10:47:12.799Z,98873.34
2023-04-16T10:49:40.254Z,98880.78
2023-04-16T10:52:12.631Z,98879.25
2023-04-16T10:54:40.306Z,98878.69
2023-04-16T10:57:09.096Z,98876.59
2023-04-16T10:59:39.754Z,98881.34
2023-04-16T11:02:13.741Z,98881.34
2023-04-16T11:04:44.238Z,98884.16
2023-04-16T11:07:24.273Z,98890.63
2023-04-16T11:10:05.197Z,98886.72
2023-04-16T11:12:39.607Z,98883.59
2023-04-16T11:15:11.151Z,98890.06
2023-04-16T11:17:49.098Z,98888.38
2023-04-16T11:20:23.984Z,98894.97
2023-04-16T11:22:52.372Z,98884.75
2023-04-16T11:25:31.611Z,98884.16
2023-04-16T11:28:01.616Z,98880.13
2023-04-16T11:30:35.396Z,98885.41
2023-04-16T11:33:07.675Z,98885.28
2023-04-16T11:35:34.107Z,98889.25
2023-04-16T11:38:00.841Z,98891.75
2023-04-16T11:40:31.221Z,98891.59
2023-04-16T11:43:02.862Z,98895.00
2023-04-16T11:45:29.383Z,98892.44
2023-04-16T11:47:57.755Z,98896.66
2023-04-16T11:50:28.667Z,98901.00
2023-04-16T11:52:57.027Z,98899.34
2023-04-16T11:55:24.146Z,98904.25
2023-04-16T11:57:51.728Z,98906.06
2023-04-16T12:00:24.680Z,98904.34
2023-04-16T12:02:55.352Z,98906.50
2023-04-16T12:05:31.325Z,98917.84
2023-04-16T12:08:03.330Z,98913.03
2023-04-16T12:10:30.833Z,98907.94
2023-04-16T12:13:17.833Z,98905.72
2023-04-16T12:15:51.855Z,98912.44
2023-04-16T12:18:20.202Z,98899.53
2023-04-16T12:20:47.578Z,98896.38
2023-04-16T12:23:28.500Z,98905.16
2023-04-16T12:25:55.920Z,98901.72
2023-04-16T12:28:33.964Z,98894.00
2023-04-16T12:31:01.793Z,98900.94
2023-04-16T12:33:28.789Z,98898.03
2023-04-16T12:35:55.516Z,98894.53
2023-04-16T12:38:24.298Z,98888.94
2023-04-16T12:40:51.965Z,98889.53
2023-04-16T12:43:19.685Z,98901.53
2023-04-16T12:45:46.304Z,98895.22
2023-04-16T12:48:12.676Z,98903.84
2023-04-16T12:50:39.785Z,98896.88
2023-04-16T12:53:06.305Z,98900.94
2023-04-16T12:55:32.821Z,98903.28
2023-04-16T12:57:59.293Z,98904.06
2023-04-16T13:00:25.822Z,98894.91
2023-04-16T13:02:52.492Z,98899.56
2023-04-16T13:05:19.591Z,98905.34
2023-04-16T13:07:46.417Z,98906.34
2023-04-16T13:10:13.501Z,98900.44
2023-04-16T13:12:41.266Z,98908.16
2023-04-16T13:15:08.506Z,98904.03
2023-04-16T13:17:35.033Z,98913.94
2023-04-16T13:20:01.751Z,98909.50
2023-04-16T13:22:28.415Z,98913.88
2023-04-16T13:24:55.426Z,98905.75
2023-04-16T13:27:22.021Z,98907.28
2023-04-16T13:29:48.570Z,98910.19
2023-04-16T13:32:15.454Z,98904.38
2023-04-16T13:34:42.689Z,98912.63
2023-04-16T13:37:09.168Z,98919.59
2023-04-16T13:39:36.011Z,98917.91
2023-04-16T13:42:02.767Z,98916.00
2023-04-16T13:44:29.453Z,98917.75
2023-04-16T13:46:56.290Z,98916.81
2023-04-16T13:49:23.542Z,98905.69
2023-04-16T13:51:50.717Z,98912.53
2023-04-16T13:54:17.276Z,98916.50
2023-04-16T13:56:44.003Z,98913.66
2023-04-16T13:59:11.021Z,98918.59
2023-04-16T14:01:37.913Z,98909.41
2023-04-16T14:04:06.796Z,98914.53
2023-04-16T14:06:34.778Z,98909.22
2023-04-16T14:09:01.985Z,98917.97
2023-04-16T14:11:28.788Z,98915.00
2023-04-16T14:14:13.999Z,98918.25
2023-04-16T14:16:40.680Z,98914.53
2023-04-16T14:19:07.201Z,98915.53
2023-04-16T14:21:33.667Z,98919.03
2023-04-16T14:24:00.284Z,98923.25
2023-04-16T14:26:26.883Z,98923.72
2023-04-16T14:28:53.465Z,98927.84
2023-04-16T14:31:20.580Z,98923.38
2023-04-16T14:33:47.301Z,98918.16
2023-04-16T14:36:14.179Z,98918.69
2023-04-16T14:38:40.865Z,98921.75
2023-04-16T14:41:07.328Z,98921.47
2023-04-16T14:43:34.155Z,98914.97
2023-04-16T14:46:00.625Z,98913.69
2023-04-16T14:48:27.164Z,98916.97
2023-04-16T14:50:54.000Z,98925.69
2023-04-16T14:53:20.549Z,98933.69
2023-04-16T14:55:47.574Z,98926.81
2023-04-16T14:58:14.145Z,98929.66
2023-04-16T15:00:40.983Z,98931.63
2023-04-16T15:03:07.701Z,98937.13
2023-04-16T15:05:35.653Z,98932.13
2023-04-16T15:08:02.449Z,98938.91
2023-04-16T15:10:28.977Z,98932.63
2023-04-16T15:12:55.471Z,98932.34
2023-04-16T15:15:21.960Z,98931.28
2023-04-16T15:17:50.276Z,98934.25
2023-04-16T15:20:16.727Z,98939.03
2023-04-16T15:22:43.150Z,98938.25
2023-04-16T15:25:09.716Z,98942.50
2023-04-16T15:27:36.615Z,98952.78
2023-04-16T15:30:03.510Z,98944.13
2023-04-16T15:32:31.061Z,98948.34
2023-04-16T15:34:57.544Z,98952.41
2023-04-16T15:37:24.153Z,98941.75
2023-04-16T15:39:50.783Z,98948.34
2023-04-16T15:42:17.350Z,98953.00
2023-04-16T15:44:43.857Z,98941.75
2023-04-16T15:47:10.759Z,98950.19
2023-04-16T15:49:37.232Z,98943.41
2023-04-16T15:52:04.002Z,98947.16
2023-04-16T15:54:31.683Z,98950.44
2023-04-16T15:56:58.955Z,98949.34
2023-04-16T15:59:29.016Z,98949.53
2023-04-16T16:01:55.949Z,98955.59
2023-04-16T16:04:23.282Z,98956.56
2023-04-16T16:06:50.858Z,98948.59
2023-04-16T16:09:18.575Z,98956.50
2023-04-16T16:11:45.133Z,98962.13
2023-04-16T16:14:11.832Z,98955.38
2023-04-16T16:16:39.632Z,98954.00
2023-04-16T16:19:06.854Z,98959.63
2023-04-16T16:21:33.513Z,98967.34
2023-04-16T16:24:00.244Z,98964.66
2023-04-16T16:26:27.950Z,98964.41
2023-04-16T16:28:54.399Z,98967.94
2023-04-16T16:31:21.093Z,98972.81
2023-04-16T16:33:47.697Z,98973.97
2023-04-16T16:36:14.296Z,98975.50
2023-04-16T16:38:41.285Z,98981.53
2023-04-16T16:41:08.107Z,98975.22
2023-04-16T16:43:37.669Z,98979.28
2023-04-16T16:46:05.695Z,98978.47
2023-04-16T16:48:32.050Z,98980.56
2023-04-16T16:50:58.615Z,98977.06
2023-04-16T16:53:25.217Z,98979.03
2023-04-16T16:55:51.648Z,98981.41
2023-04-16T16:58:18.071Z,98983.47
2023-04-16T17:00:44.601Z,98985.03
2023-04-16T17:03:11.404Z,98987.81
2023-04-16T17:05:38.177Z,98987.69
2023-04-16T17:08:04.814Z,98991.88
2023-04-16T17:10:31.259Z,98987.53
2023-04-16T17:12:57.746Z,98993.13
2023-04-16T17:15:24.325Z,98990.19
2023-04-16T17:17:50.893Z,98994.09
2023-04-16T17:20:17.531Z,98997.47
2023-04-16T17:22:44.084Z,98999.72
2023-04-16T17:25:10.922Z,98997.19
2023-04-16T17:27:37.397Z,98998.44
2023-04-16T17:30:05.462Z,99003.06
2023-04-16T17:32:32.718Z,99004.56
2023-04-16T17:35:01.120Z,99000.09
2023-04-16T17:37:27.730Z,99007.13
2023-04-16T17:39:54.240Z,99017.63
2023-04-16T17:42:20.715Z,99020.00
2023-04-16T17:44:47.571Z,99020.13
2023-04-16T17:47:14.251Z,99017.75
2023-04-16T17:49:40.950Z,99024.47
2023-04-16T17:52:07.596Z,99026.00
2023-04-16T17:54:34.370Z,99034.28
2023-04-16T17:57:01.770Z,99024.28
2023-04-16T17:59:28.545Z,99035.81
2023-04-16T18:01:56.233Z,99032.31
2023-04-16T18:04:23.060Z,99040.84
2023-04-16T18:06:49.586Z,99042.28
2023-04-16T18:09:16.134Z,99044.94
2023-04-16T18:11:42.657Z,99037.13
2023-04-16T18:14:11.499Z,99046.97
2023-04-16T18:16:38.237Z,99044.63
2023-04-16T18:19:05.522Z,99049.09
2023-04-16T18:21:32.117Z,99048.13
2023-04-16T18:24:00.838Z,99048.38
2023-04-16T18:26:29.718Z,99058.13
2023-04-16T18:28:56.643Z,99058.28
2023-04-16T18:31:23.171Z,99059.03
2023-04-16T18:33:57.252Z,99060.31
2023-04-16T18:36:24.449Z,99065.13
2023-04-16T18:39:01.021Z,99061.91
2023-04-16T18:41:29.278Z,99067.69
2023-04-16T18:43:55.974Z,99076.88
2023-04-16T18:46:22.618Z,99081.22
2023-04-16T18:48:49.230Z,99074.56
2023-04-16T18:51:16.713Z,99084.38
2023-04-16T18:53:44.320Z,99083.50
2023-04-16T18:56:11.515Z,99086.88
2023-04-16T18:58:38.090Z,99090.53
2023-04-16T19:01:05.349Z,99086.88
2023-04-16T19:03:32.082Z,99085.44
2023-04-16T19:05:58.783Z,99092.59
2023-04-16T19:08:25.361Z,99088.25
2023-04-16T19:10:51.860Z,99089.66
2023-04-16T19:13:18.333Z,99094.84
2023-04-16T19:15:44.728Z,99094.69
2023-04-16T19:18:11.208Z,99105.59
2023-04-16T19:20:37.796Z,99092.13
2023-04-16T19:23:05.596Z,99088.53
2023-04-16T19:25:32.577Z,99103.41
2023-04-16T19:27:59.375Z,99107.72
2023-04-16T19:30:26.439Z,99102.75
2023-04-16T19:32:55.182Z,99103.47
2023-04-16T19:35:22.105Z,99103.59
2023-04-16T19:37:48.688Z,99108.47
2023-04-16T19:40:15.264Z,99103.81
2023-04-16T19:42:41.954Z,99104.22
2023-04-16T19:45:08.653Z,99112.13
2023-04-16T19:47:35.559Z,99100.78
2023-04-16T19:50:02.149Z,99104.66
2023-04-16T19:52:28.619Z,99109.28
2023-04-16T19:54:56.904Z,99111.75
2023-04-16T20:03:16.647Z,99120.75
2023-04-16T20:03:59.450Z,99123.06
2023-04-16T20:05:43.091Z,99123.56
2023-04-16T20:08:09.516Z,99119.13
2023-04-16T20:10:36.091Z,99119.03
2023-04-16T20:13:02.577Z,99123.59
2023-04-16T20:15:28.993Z,99119.19
2023-04-16T20:17:56.198Z,99128.00
2023-04-16T20:20:23.564Z,99124.97
2023-04-16T20:22:53.022Z,99115.81
2023-04-16T20:25:19.667Z,99120.84
2023-04-16T20:27:46.235Z,99114.22
2023-04-16T20:30:13.456Z,99123.88
2023-04-16T20:32:40.001Z,99122.69
2023-04-16T20:35:10.398Z,99117.72
2023-04-16T20:37:38.460Z,99121.50
2023-04-16T20:40:07.785Z,99122.72
2023-04-16T20:42:34.515Z,99122.00
2023-04-16T20:45:01.327Z,99124.19
2023-04-16T20:47:27.808Z,99124.53
2023-04-16T20:49:54.910Z,99119.47
2023-04-16T20:52:59.781Z,99115.84
2023-04-16T20:58:16.665Z,99119.06
2023-04-16T21:00:43.162Z,99119.47
2023-04-16T21:03:09.754Z,99119.47
2023-04-16T21:05:36.971Z,99119.34
2023-04-16T21:08:03.466Z,99121.50
2023-04-16T21:10:29.895Z,99119.81
2023-04-16T21:12:56.308Z,99114.97
2023-04-16T21:15:22.887Z,99111.69
2023-04-16T21:17:49.480Z,99113.06
2023-04-16T21:20:16.114Z,99119.34
2023-04-16T21:22:42.636Z,99120.66
2023-04-16T21:25:09.470Z,99115.72
2023-04-16T21:27:35.827Z,99114.31
2023-04-16T21:30:02.282Z,99109.13
2023-04-16T21:32:28.883Z,99117.34
2023-04-16T21:34:55.760Z,99121.47
2023-04-16T21:37:22.222Z,99123.28
2023-04-16T21:39:48.679Z,99124.50
2023-04-16T21:42:15.545Z,99114.84
2023-04-16T21:44:42.098Z,99113.75
2023-04-16T21:47:08.598Z,99123.03
2023-04-16T21:49:35.075Z,99123.28
2023-04-16T21:52:02.523Z,99116.88
2023-04-16T21:54:29.102Z,99121.00
2023-04-16T21:56:56.633Z,99117.72
2023-04-16T21:59:23.259Z,99117.09
2023-04-16T22:01:49.751Z,99121.47
2023-04-16T22:04:16.266Z,99113.88
2023-04-16T22:06:43.177Z,99118.94
2023-04-16T22:09:09.907Z,99119.19
2023-04-16T22:11:36.577Z,99124.63
2023-04-16T22:14:03.035Z,99126.19
2023-04-16T22:16:29.546Z,99114.34
2023-04-16T22:18:56.513Z,99121.97
2023-04-16T22:21:22.949Z,99121.09
2023-04-16T22:23:49.414Z,99116.88
2023-04-16T22:26:16.032Z,99119.88
2023-04-16T22:28:42.391Z,99122.31
2023-04-16T22:31:10.075Z,99117.97
2023-04-16T22:33:36.865Z,99121.84
2023-04-16T22:36:03.437Z,99114.97
2023-04-16T22:38:29.894Z,99113.03
2023-04-16T22:40:56.352Z,99114.97
2023-04-16T22:43:23.009Z,99121.22
2023-04-16T22:45:49.520Z,99117.63
2023-04-16T22:48:16.364Z,99121.63
2023-04-16T22:50:48.441Z,99120.66
2023-04-16T22:53:15.032Z,99114.84
2023-04-16T22:55:41.593Z,99113.66
2023-04-16T22:58:07.995Z,99117.84
2023-04-16T23:00:34.480Z,99109.66
2023-04-16T23:03:01.393Z,99112.31
2023-04-16T23:05:28.001Z,99119.94
2023-04-16T23:07:54.514Z,99117.38
2023-04-16T23:10:20.937Z,99120.03
2023-04-16T23:12:47.334Z,99125.34
2023-04-16T23:15:14.458Z,99118.97
2023-04-16T23:17:41.062Z,99111.59
2023-04-16T23:20:09.967Z,99115.69
2023-04-16T23:22:36.536Z,99114.63
2023-04-16T23:25:03.067Z,99113.53
2023-04-16T23:27:29.515Z,99120.16
2023-04-16T23:29:55.895Z,99115.69
2023-04-16T23:32:22.322Z,99116.19
2023-04-16T23:34:48.806Z,99108.47
2023-04-16T23:37:15.483Z,99107.25
2023-04-16T23:39:41.831Z,99111.00
2023-04-16T23:42:08.358Z,99113.44
2023-04-16T23:44:34.793Z,99110.38
2023-04-16T23:47:01.380Z,99114.03
2023-04-16T23:49:28.163Z,99107.72
2023-04-16T23:51:54.650Z,99106.66
2023-04-16T23:54:21.392Z,99108.72
2023-04-16T23:56:47.808Z,99101.00
2023-04-16T23:59:14.642Z,99096.41
